createdAt,value
2023-05-19T00:01:23.287Z,47.14
2023-05-19T00:03:58.076Z,47.28
2023-05-19T00:06:27.421Z,47.49
2023-05-19T00:09:03.696Z,47.14
2023-05-19T00:11:31.316Z,47.50
2023-05-19T00:14:00.260Z,47.20
2023-05-19T00:16:29.345Z,47.38
2023-05-19T00:19:01.275Z,47.66
2023-05-19T00:21:29.858Z,47.55
2023-05-19T00:23:57.747Z,47.63
2023-05-19T00:26:27.117Z,47.50
2023-05-19T00:29:05.483Z,47.80
2023-05-19T00:31:34.379Z,47.78
2023-05-19T00:34:02.217Z,47.82
2023-05-19T00:36:30.014Z,48.23
2023-05-19T00:38:57.309Z,48.10
2023-05-19T00:41:25.336Z,48.36
2023-05-19T00:43:52.779Z,48.57
2023-05-19T00:46:20.252Z,48.60
2023-05-19T00:48:48.629Z,48.84
2023-05-19T00:51:17.311Z,48.92
2023-05-19T00:53:49.501Z,48.71
2023-05-19T00:56:18.678Z,48.49
2023-05-19T00:58:46.252Z,48.71
2023-05-19T01:01:14.766Z,48.51
2023-05-19T01:03:43.556Z,48.62
2023-05-19T01:06:12.377Z,48.64
2023-05-19T01:08:40.989Z,48.51
2023-05-19T01:11:08.736Z,48.39
2023-05-19T01:13:37.057Z,48.98
2023-05-19T01:16:23.791Z,49.03
2023-05-19T01:19:01.960Z,48.64
2023-05-19T01:21:55.782Z,48.76
2023-05-19T01:24:40.707Z,49.30
2023-05-19T01:27:51.148Z,49.15
2023-05-19T01:30:36.593Z,49.44
2023-05-19T01:33:11.247Z,48.99
2023-05-19T01:35:41.864Z,48.99
2023-05-19T01:38:11.761Z,48.55
2023-05-19T01:40:42.230Z,48.56
2023-05-19T01:43:12.728Z,48.58
2023-05-19T01:45:40.978Z,48.62
2023-05-19T01:48:10.783Z,48.66
2023-05-19T01:50:41.053Z,48.62
2023-05-19T01:53:08.768Z,48.75
2023-05-19T01:55:42.841Z,48.76
2023-05-19T01:58:19.612Z,48.65
2023-05-19T02:00:54.248Z,49.00
2023-05-19T02:03:30.923Z,48.80
2023-05-19T02:06:01.297Z,48.86
2023-05-19T02:08:40.810Z,48.79
2023-05-19T02:11:16.848Z,48.85
2023-05-19T02:13:48.235Z,48.89
2023-05-19T02:16:17.779Z,48.70
2023-05-19T02:18:46.446Z,48.70
2023-05-19T02:21:14.105Z,48.86
2023-05-19T02:23:42.282Z,48.74
2023-05-19T02:26:09.516Z,48.12
2023-05-19T02:28:36.910Z,48.46
2023-05-19T02:31:09.804Z,48.46
2023-05-19T02:33:37.759Z,48.52
2023-05-19T02:36:07.431Z,48.38
2023-05-19T02:38:34.839Z,48.24
2023-05-19T02:41:02.174Z,48.26
2023-05-19T02:43:30.722Z,48.27
2023-05-19T02:45:58.185Z,48.50
2023-05-19T02:48:28.040Z,48.27
2023-05-19T02:50:55.327Z,48.06
2023-05-19T02:53:22.640Z,48.21
2023-05-19T02:55:49.959Z,48.12
2023-05-19T02:58:17.161Z,48.02
2023-05-19T03:00:45.644Z,47.93
2023-05-19T03:03:14.442Z,48.14
2023-05-19T03:05:43.570Z,48.14
2023-05-19T03:08:11.015Z,48.12
2023-05-19T03:10:38.592Z,47.98
2023-05-19T03:13:06.420Z,47.87
2023-05-19T03:15:34.733Z,47.90
2023-05-19T03:18:01.990Z,48.07
2023-05-19T03:20:31.520Z,47.85
2023-05-19T03:22:59.025Z,47.95
2023-05-19T03:25:26.644Z,47.94
2023-05-19T03:27:54.110Z,47.62
2023-05-19T03:30:21.386Z,47.78
2023-05-19T03:33:12.550Z,47.54
2023-05-19T03:35:41.046Z,47.76
2023-05-19T03:38:08.780Z,47.64
2023-05-19T03:40:37.535Z,47.79
2023-05-19T03:43:09.440Z,47.50
2023-05-19T03:45:43.575Z,47.68
2023-05-19T03:48:31.139Z,47.42
2023-05-19T03:51:17.125Z,47.20
2023-05-19T03:53:45.858Z,47.00
2023-05-19T03:56:15.168Z,47.06
2023-05-19T03:58:44.535Z,46.52
2023-05-19T04:01:12.347Z,46.17
2023-05-19T04:03:39.823Z,45.87
2023-05-19T04:06:09.366Z,46.23
2023-05-19T04:08:36.658Z,45.51
2023-05-19T04:11:04.275Z,45.57
2023-05-19T04:13:34.991Z,45.30
2023-05-19T04:16:02.819Z,45.15
2023-05-19T04:18:30.397Z,45.09
2023-05-19T04:20:57.754Z,44.90
2023-05-19T04:23:26.101Z,44.80
2023-05-19T04:25:54.506Z,44.63
2023-05-19T04:28:21.950Z,44.55
2023-05-19T04:30:49.679Z,44.58
2023-05-19T04:33:17.965Z,44.37
2023-05-19T04:35:46.625Z,44.38
2023-05-19T04:38:13.969Z,44.32
2023-05-19T04:40:42.759Z,44.30
2023-05-19T04:43:11.755Z,44.30
2023-05-19T04:45:42.885Z,44.07
2023-05-19T04:48:12.606Z,44.17
2023-05-19T04:50:42.511Z,43.94
2023-05-19T04:53:11.517Z,44.11
2023-05-19T04:55:39.545Z,43.52
2023-05-19T04:58:07.877Z,43.73
2023-05-19T05:00:35.999Z,43.31
2023-05-19T05:03:09.990Z,43.15
2023-05-19T05:05:37.569Z,42.83
2023-05-19T05:08:23.392Z,42.81
2023-05-19T05:10:55.393Z,42.92
2023-05-19T05:13:24.314Z,42.79
2023-05-19T05:15:56.322Z,42.51
2023-05-19T05:18:23.837Z,42.46
2023-05-19T05:20:51.799Z,42.44
2023-05-19T05:23:19.934Z,42.27
2023-05-19T05:25:49.344Z,42.30
2023-05-19T05:28:17.669Z,42.10
2023-05-19T05:30:46.514Z,41.27
2023-05-19T05:33:20.018Z,41.12
2023-05-19T05:35:47.437Z,40.84
2023-05-19T05:38:15.553Z,40.89
2023-05-19T05:40:42.764Z,41.13
2023-05-19T05:43:11.123Z,41.07
2023-05-19T05:45:47.816Z,40.99
2023-05-19T05:48:16.226Z,40.92
2023-05-19T05:50:45.045Z,40.28
2023-05-19T05:53:21.609Z,39.92
2023-05-19T05:55:53.919Z,40.23
2023-05-19T05:58:24.820Z,39.99
2023-05-19T06:00:55.437Z,40.29
2023-05-19T06:03:24.712Z,39.94
2023-05-19T06:05:53.896Z,40.24
2023-05-19T06:08:21.159Z,40.39
2023-05-19T06:10:51.273Z,40.56
2023-05-19T06:13:22.781Z,40.23
2023-05-19T06:15:51.324Z,40.37
2023-05-19T06:18:26.340Z,40.85
2023-05-19T06:20:53.848Z,40.79
2023-05-19T06:23:22.023Z,40.27
2023-05-19T06:25:49.833Z,40.37
2023-05-19T06:28:19.517Z,40.45
2023-05-19T06:30:47.226Z,40.44
2023-05-19T06:33:21.977Z,40.85
2023-05-19T06:35:49.549Z,40.60
2023-05-19T06:38:17.779Z,40.36
2023-05-19T06:40:45.998Z,40.60
2023-05-19T06:43:15.227Z,40.52
2023-05-19T06:45:56.983Z,39.77
2023-05-19T06:48:26.197Z,39.62
2023-05-19T06:50:53.594Z,39.55
2023-05-19T06:53:21.736Z,39.74
2023-05-19T06:55:59.424Z,39.37
2023-05-19T06:58:30.620Z,39.62
2023-05-19T07:01:00.664Z,39.60
2023-05-19T07:03:34.309Z,39.08
2023-05-19T07:06:02.468Z,39.32
2023-05-19T07:08:29.974Z,39.37
2023-05-19T07:11:00.598Z,39.17
2023-05-19T07:13:29.754Z,39.38
2023-05-19T07:15:58.592Z,38.41
2023-05-19T07:18:32.603Z,37.77
2023-05-19T07:21:01.333Z,37.68
2023-05-19T07:23:28.825Z,36.91
2023-05-19T07:26:00.784Z,36.75
2023-05-19T07:28:28.157Z,36.73
2023-05-19T07:30:56.489Z,36.76
2023-05-19T07:33:24.272Z,36.92
2023-05-19T07:35:51.699Z,36.55
2023-05-19T07:38:19.921Z,36.92
2023-05-19T07:40:47.436Z,37.04
2023-05-19T07:43:16.393Z,37.06
2023-05-19T07:45:43.737Z,36.36
2023-05-19T07:48:11.156Z,36.71
2023-05-19T07:50:38.452Z,36.93
2023-05-19T07:53:08.615Z,36.61
2023-05-19T07:55:36.124Z,36.51
2023-05-19T07:58:03.416Z,36.78
2023-05-19T08:00:31.177Z,36.21
2023-05-19T08:02:58.908Z,36.45
2023-05-19T08:05:26.395Z,36.80
2023-05-19T08:07:53.551Z,36.71
2023-05-19T08:10:20.875Z,36.76
2023-05-19T08:12:48.328Z,36.26
2023-05-19T08:15:16.765Z,36.66
2023-05-19T08:17:44.354Z,36.96
2023-05-19T08:20:14.916Z,36.44
2023-05-19T08:22:50.517Z,36.01
2023-05-19T08:25:20.019Z,36.15
2023-05-19T08:27:47.323Z,36.02
2023-05-19T08:30:14.891Z,36.60
2023-05-19T08:32:42.668Z,36.81
2023-05-19T08:35:10.256Z,37.09
2023-05-19T08:37:38.977Z,36.91
2023-05-19T08:40:12.145Z,36.42
2023-05-19T08:42:40.278Z,36.52
2023-05-19T08:45:08.107Z,37.22
2023-05-19T08:47:36.216Z,37.78
2023-05-19T08:50:10.066Z,38.04
2023-05-19T08:52:53.059Z,37.71
2023-05-19T08:55:44.321Z,36.16
2023-05-19T08:58:12.937Z,37.41
2023-05-19T09:00:40.594Z,37.54
2023-05-19T09:03:18.232Z,36.79
2023-05-19T09:05:46.969Z,36.75
2023-05-19T09:08:14.418Z,36.73
2023-05-19T09:10:41.981Z,36.10
2023-05-19T09:13:10.098Z,36.64
2023-05-19T09:15:39.539Z,36.11
2023-05-19T09:18:12.059Z,35.67
2023-05-19T09:20:44.846Z,35.58
2023-05-19T09:23:15.146Z,35.96
2023-05-19T09:25:53.126Z,36.41
2023-05-19T09:28:25.711Z,34.08
2023-05-19T09:31:06.809Z,33.84
2023-05-19T09:33:39.558Z,34.19
2023-05-19T09:36:08.654Z,34.37
2023-05-19T09:38:38.414Z,34.53
2023-05-19T09:41:07.311Z,34.54
2023-05-19T09:43:35.587Z,34.54
2023-05-19T09:46:07.888Z,34.65
2023-05-19T09:48:36.813Z,34.56
2023-05-19T09:51:06.610Z,34.36
2023-05-19T09:53:35.013Z,35.08
2023-05-19T09:56:03.821Z,34.94
2023-05-19T09:58:35.625Z,35.29
2023-05-19T10:01:08.366Z,35.85
2023-05-19T10:03:38.975Z,35.67
2023-05-19T10:06:07.616Z,35.88
2023-05-19T10:08:36.086Z,35.67
2023-05-19T10:11:03.869Z,35.32
2023-05-19T10:13:32.203Z,34.87
2023-05-19T10:16:01.078Z,34.48
2023-05-19T10:18:30.908Z,34.24
2023-05-19T10:21:01.357Z,33.81
2023-05-19T10:23:31.063Z,34.34
2023-05-19T10:26:02.040Z,34.59
2023-05-19T10:28:37.393Z,34.47
2023-05-19T10:31:10.211Z,34.65
2023-05-19T10:33:57.154Z,34.14
2023-05-19T10:36:46.147Z,34.29
2023-05-19T10:39:19.201Z,34.22
2023-05-19T10:42:12.010Z,34.05
2023-05-19T10:44:42.346Z,33.36
2023-05-19T10:47:12.375Z,33.74
2023-05-19T10:49:40.953Z,33.92
2023-05-19T10:52:32.171Z,33.34
2023-05-19T10:55:01.574Z,33.97
2023-05-19T10:57:34.304Z,33.52
2023-05-19T11:00:32.146Z,32.11
2023-05-19T11:05:52.475Z,33.21
2023-05-19T11:08:33.849Z,33.00
2023-05-19T11:11:17.903Z,33.47
2023-05-19T11:13:50.787Z,33.93
2023-05-19T11:16:32.644Z,33.74
2023-05-19T11:19:00.777Z,34.12
2023-05-19T11:21:57.833Z,34.23
2023-05-19T11:24:50.147Z,33.73
2023-05-19T11:27:21.976Z,33.76
2023-05-19T11:29:49.955Z,33.71
2023-05-19T11:32:18.020Z,33.91
2023-05-19T11:34:46.830Z,33.36
2023-05-19T11:37:14.324Z,33.21
2023-05-19T11:39:41.590Z,33.45
2023-05-19T11:42:11.903Z,32.97
2023-05-19T11:44:41.336Z,32.84
2023-05-19T11:47:09.509Z,33.08
2023-05-19T11:49:37.011Z,33.15
2023-05-19T11:52:05.925Z,32.12
2023-05-19T11:54:58.686Z,32.24
2023-05-19T11:57:25.994Z,32.58
2023-05-19T11:59:56.483Z,32.53
2023-05-19T12:02:26.351Z,32.05
2023-05-19T12:04:54.917Z,32.08
2023-05-19T12:07:26.255Z,31.86
2023-05-19T12:09:55.586Z,32.01
2023-05-19T12:12:23.571Z,32.17
2023-05-19T12:14:52.642Z,32.73
2023-05-19T12:17:21.370Z,32.05
2023-05-19T12:19:49.831Z,32.21
2023-05-19T12:22:18.284Z,32.69
2023-05-19T12:24:47.356Z,32.68
2023-05-19T12:27:26.376Z,32.56
2023-05-19T12:29:57.360Z,32.55
2023-05-19T12:32:25.981Z,32.16
2023-05-19T12:34:54.233Z,32.59
2023-05-19T12:37:21.605Z,32.57
2023-05-19T12:39:50.577Z,32.45
2023-05-19T12:42:17.977Z,32.74
2023-05-19T12:44:48.275Z,32.40
2023-05-19T12:47:17.369Z,32.49
2023-05-19T12:50:13.997Z,32.71
2023-05-19T12:52:49.800Z,33.07
2023-05-19T12:55:18.224Z,33.13
2023-05-19T12:57:50.661Z,32.73
2023-05-19T13:00:21.218Z,33.06
2023-05-19T13:03:02.769Z,32.83
2023-05-19T13:05:32.068Z,33.05
2023-05-19T13:08:07.908Z,32.84
2023-05-19T13:10:37.525Z,32.89
2023-05-19T13:13:06.905Z,33.37
2023-05-19T13:15:38.291Z,33.08
2023-05-19T13:18:10.326Z,33.04
2023-05-19T13:20:40.844Z,33.42
2023-05-19T13:23:10.590Z,33.62
2023-05-19T13:25:38.898Z,33.08
2023-05-19T13:28:07.086Z,33.34
2023-05-19T13:30:39.850Z,33.41
2023-05-19T13:33:09.296Z,33.21
2023-05-19T13:35:37.973Z,33.03
2023-05-19T13:38:10.571Z,33.10
2023-05-19T13:40:40.020Z,32.90
2023-05-19T13:43:08.907Z,32.90
2023-05-19T13:45:37.942Z,32.73
2023-05-19T13:48:07.705Z,32.91
2023-05-19T13:50:35.426Z,32.88
2023-05-19T13:53:03.849Z,33.14
2023-05-19T13:55:33.523Z,33.27
2023-05-19T13:58:01.264Z,33.52
2023-05-19T14:00:28.796Z,33.21
2023-05-19T14:02:56.348Z,33.47
2023-05-19T14:05:23.837Z,33.42
2023-05-19T14:07:51.779Z,33.29
2023-05-19T14:10:19.143Z,33.58
2023-05-19T14:13:12.358Z,33.02
2023-05-19T14:15:38.220Z,33.12
2023-05-19T14:18:07.178Z,33.48
2023-05-19T14:20:35.865Z,33.23
2023-05-19T14:23:03.554Z,33.40
2023-05-19T14:25:31.084Z,32.96
2023-05-19T14:27:58.603Z,32.96
2023-05-19T14:30:25.997Z,33.08
2023-05-19T14:32:53.309Z,32.78
2023-05-19T14:35:21.277Z,33.04
2023-05-19T14:37:48.606Z,32.58
2023-05-19T14:40:16.023Z,32.67
2023-05-19T14:42:43.316Z,32.35
2023-05-19T14:45:11.275Z,32.35
2023-05-19T14:47:40.057Z,32.53
2023-05-19T14:50:08.421Z,32.57
2023-05-19T14:52:35.784Z,32.48
2023-05-19T14:55:06.108Z,31.62
2023-05-19T14:57:33.573Z,31.99
2023-05-19T15:00:00.908Z,31.97
2023-05-19T15:02:30.862Z,31.94
2023-05-19T15:04:58.447Z,31.69
2023-05-19T15:07:25.761Z,31.61
2023-05-19T15:09:53.499Z,31.59
2023-05-19T15:12:21.131Z,31.85
2023-05-19T15:14:49.234Z,31.90
2023-05-19T15:17:17.929Z,32.08
2023-05-19T15:19:45.391Z,31.87
2023-05-19T15:22:12.836Z,32.25
2023-05-19T15:24:41.367Z,32.14
2023-05-19T15:27:09.283Z,31.94
2023-05-19T15:29:39.598Z,32.28
2023-05-19T15:32:07.878Z,32.05
2023-05-19T15:34:35.198Z,32.24
2023-05-19T15:37:02.530Z,32.34
2023-05-19T15:39:31.263Z,32.41
2023-05-19T15:42:01.501Z,32.73
2023-05-19T15:44:29.241Z,33.00
2023-05-19T15:46:56.545Z,33.02
2023-05-19T15:49:25.341Z,33.31
2023-05-19T15:51:52.600Z,33.02
2023-05-19T15:54:20.628Z,33.34
2023-05-19T15:56:47.997Z,33.40
2023-05-19T15:59:15.285Z,33.59
2023-05-19T16:01:43.806Z,33.39
2023-05-19T16:04:11.937Z,33.20
2023-05-19T16:06:39.820Z,33.22
2023-05-19T16:09:07.186Z,33.82
2023-05-19T16:11:34.584Z,33.49
2023-05-19T16:14:02.180Z,33.99
2023-05-19T16:16:31.570Z,33.90
2023-05-19T16:18:58.918Z,33.82
2023-05-19T16:21:26.614Z,33.91
2023-05-19T16:23:54.197Z,33.88
2023-05-19T16:26:22.345Z,34.30
2023-05-19T16:28:49.637Z,34.23
2023-05-19T16:31:16.973Z,34.29
2023-05-19T16:33:44.297Z,34.05
2023-05-19T16:36:12.734Z,34.34
2023-05-19T16:38:40.376Z,34.32
2023-05-19T16:41:12.057Z,34.62
2023-05-19T16:43:39.694Z,34.61
2023-05-19T16:46:07.564Z,34.74
2023-05-19T16:48:34.928Z,34.94
2023-05-19T16:51:03.180Z,35.12
2023-05-19T16:53:31.622Z,35.17
2023-05-19T16:56:01.605Z,35.41
2023-05-19T16:58:31.034Z,35.49
2023-05-19T17:00:58.852Z,35.10
2023-05-19T17:03:26.356Z,35.08
2023-05-19T17:05:54.680Z,34.94
2023-05-19T17:08:21.996Z,35.32
2023-05-19T17:10:49.901Z,35.13
2023-05-19T17:13:17.285Z,35.39
2023-05-19T17:15:44.713Z,35.41
2023-05-19T17:18:13.262Z,35.52
2023-05-19T17:20:42.857Z,35.67
2023-05-19T17:23:10.776Z,35.64
2023-05-19T17:25:38.101Z,35.70
2023-05-19T17:28:07.939Z,35.95
2023-05-19T17:30:36.870Z,35.45
2023-05-19T17:33:04.628Z,35.62
2023-05-19T17:35:33.597Z,35.79
2023-05-19T17:38:01.290Z,36.09
2023-05-19T17:40:28.915Z,35.81
2023-05-19T17:42:56.419Z,36.02
2023-05-19T17:45:23.935Z,36.30
2023-05-19T17:47:51.666Z,36.29
2023-05-19T17:50:19.097Z,36.25
2023-05-19T17:52:48.300Z,36.43
2023-05-19T17:55:16.433Z,36.70
2023-05-19T17:57:46.394Z,36.87
2023-05-19T18:00:14.468Z,36.92
2023-05-19T18:02:44.092Z,37.39
2023-05-19T18:05:12.234Z,37.05
2023-05-19T18:07:42.468Z,37.25
2023-05-19T18:10:10.801Z,37.24
2023-05-19T18:12:38.521Z,37.30
2023-05-19T18:15:07.906Z,37.28
2023-05-19T18:17:35.300Z,37.27
2023-05-19T18:20:03.786Z,37.28
2023-05-19T18:22:32.312Z,37.13
2023-05-19T18:24:59.820Z,37.05
2023-05-19T18:27:28.164Z,36.91
2023-05-19T18:29:56.261Z,37.19
2023-05-19T18:32:23.771Z,37.03
2023-05-19T18:34:51.558Z,37.21
2023-05-19T18:37:18.900Z,37.13
2023-05-19T18:39:47.165Z,37.21
2023-05-19T18:42:14.955Z,37.30
2023-05-19T18:44:47.108Z,37.27
2023-05-19T18:47:14.847Z,37.22
2023-05-19T18:49:42.522Z,37.21
2023-05-19T18:52:10.491Z,37.23
2023-05-19T18:54:42.538Z,37.32
2023-05-19T18:57:10.924Z,37.17
2023-05-19T18:59:41.113Z,37.18
2023-05-19T19:02:08.521Z,37.16
2023-05-19T19:04:36.065Z,37.07
2023-05-19T19:07:14.665Z,37.00
2023-05-19T19:09:44.306Z,37.04
2023-05-19T19:12:13.547Z,36.76
2023-05-19T19:14:42.039Z,36.74
2023-05-19T19:17:12.279Z,36.61
2023-05-19T19:19:43.384Z,36.61
2023-05-19T19:22:12.292Z,36.75
2023-05-19T19:24:39.853Z,36.51
2023-05-19T19:27:10.754Z,36.09
2023-05-19T19:29:38.873Z,36.18
2023-05-19T19:32:06.749Z,36.01
2023-05-19T19:34:34.499Z,35.85
2023-05-19T19:37:02.736Z,35.57
2023-05-19T19:39:30.433Z,35.57
2023-05-19T19:41:58.201Z,35.30
2023-05-19T19:44:25.643Z,35.30
2023-05-19T19:46:53.095Z,35.08
2023-05-19T19:49:21.484Z,34.69
2023-05-19T19:51:48.958Z,34.54
2023-05-19T19:54:16.291Z,34.13
2023-05-19T19:56:43.638Z,33.88
2023-05-19T19:59:13.237Z,33.81
2023-05-19T20:01:40.982Z,33.62
2023-05-19T20:04:08.398Z,33.57
2023-05-19T20:06:37.202Z,33.60
2023-05-19T20:09:05.657Z,33.37
2023-05-19T20:11:33.144Z,33.28
2023-05-19T20:14:00.632Z,33.06
2023-05-19T20:16:28.362Z,33.14
2023-05-19T20:18:55.869Z,33.10
2023-05-19T20:21:23.913Z,32.86
2023-05-19T20:23:51.575Z,32.95
2023-05-19T20:26:19.008Z,32.89
2023-05-19T20:28:46.624Z,32.70
2023-05-19T20:31:15.265Z,32.78
2023-05-19T20:33:42.510Z,32.94
2023-05-19T20:36:11.112Z,32.96
2023-05-19T20:38:38.513Z,33.23
2023-05-19T20:41:05.878Z,33.29
2023-05-19T20:43:33.894Z,33.33
2023-05-19T20:46:04.101Z,33.09
2023-05-19T20:48:36.511Z,33.14
2023-05-19T20:51:04.210Z,33.67
2023-05-19T20:53:33.675Z,32.67
2023-05-19T20:56:01.829Z,33.33
2023-05-19T20:58:30.460Z,33.13
2023-05-19T21:00:58.342Z,32.91
2023-05-19T21:03:27.228Z,32.96
2023-05-19T21:05:56.271Z,33.00
2023-05-19T21:08:24.440Z,32.92
2023-05-19T21:10:51.887Z,32.73
2023-05-19T21:13:19.518Z,32.39
2023-05-19T21:15:47.098Z,32.36
2023-05-19T21:18:15.284Z,32.09
2023-05-19T21:20:42.736Z,32.05
2023-05-19T21:23:10.169Z,31.92
2023-05-19T21:25:38.525Z,31.90
2023-05-19T21:28:06.259Z,31.95
2023-05-19T21:30:34.080Z,31.71
2023-05-19T21:33:04.353Z,31.53
2023-05-19T21:35:31.707Z,31.70
2023-05-19T21:38:03.917Z,31.71
2023-05-19T21:40:36.867Z,32.23
2023-05-19T21:43:04.658Z,32.07
2023-05-19T21:45:32.065Z,32.18
2023-05-19T21:47:59.627Z,32.22
2023-05-19T21:50:27.332Z,32.61
2023-05-19T21:52:54.584Z,32.68
2023-05-19T21:55:23.228Z,32.72
2023-05-19T21:57:50.915Z,32.83
2023-05-19T22:00:18.579Z,33.08
2023-05-19T22:02:46.300Z,33.17
2023-05-19T22:05:13.645Z,33.46
2023-05-19T22:07:41.215Z,33.69
2023-05-19T22:10:09.173Z,33.90
2023-05-19T22:12:36.730Z,33.90
2023-05-19T22:15:04.376Z,34.11
2023-05-19T22:17:32.434Z,34.54
2023-05-19T22:19:59.990Z,34.64
2023-05-19T22:22:28.206Z,34.72
2023-05-19T22:24:55.553Z,34.81
2023-05-19T22:27:22.987Z,35.37
2023-05-19T22:29:51.512Z,35.33
2023-05-19T22:32:20.257Z,35.62
2023-05-19T22:34:47.542Z,35.56
2023-05-19T22:37:14.834Z,35.51
2023-05-19T22:39:42.215Z,35.81
2023-05-19T22:42:09.656Z,35.68
2023-05-19T22:44:37.032Z,35.73
2023-05-19T22:47:16.715Z,35.83
2023-05-19T22:49:44.135Z,36.06
2023-05-19T22:52:12.057Z,35.91
2023-05-19T22:54:40.510Z,35.88
2023-05-19T22:57:07.893Z,36.23
2023-05-19T22:59:38.848Z,36.26
2023-05-19T23:02:06.257Z,36.25
2023-05-19T23:04:36.956Z,36.15
2023-05-19T23:07:04.667Z,36.51
2023-05-19T23:09:31.901Z,36.60
2023-05-19T23:11:59.224Z,36.65
2023-05-19T23:14:26.895Z,37.03
2023-05-19T23:16:54.469Z,37.50
2023-05-19T23:19:23.119Z,37.74
2023-05-19T23:21:50.699Z,37.54
2023-05-19T23:24:18.225Z,37.82
2023-05-19T23:26:46.002Z,38.16
2023-05-19T23:29:14.988Z,38.48
2023-05-19T23:31:42.600Z,38.64
2023-05-19T23:34:10.807Z,38.62
2023-05-19T23:36:38.222Z,38.75
2023-05-19T23:39:05.613Z,38.71
2023-05-19T23:41:33.205Z,39.02
2023-05-19T23:44:00.457Z,39.35
2023-05-19T23:46:27.949Z,39.58
2023-05-19T23:48:55.172Z,39.82
2023-05-19T23:51:22.451Z,39.90
2023-05-19T23:53:49.791Z,40.20
2023-05-19T23:56:20.035Z,39.76
2023-05-19T23:58:47.585Z,40.18
